Time;durP1;ratioP1;P1;durP2;ratioP2;P2;SDS_P1;SDS_P2;PMS_P1;PMS_P2;Temp;Humidity;BMP_temperature;BMP_pressure;BME280_temperature;BME280_humidity;BME280_pressure;Samples;Min_cycle;Max_cycle;Signal;HPM_P1;HPM_P2
2023/01/12 05:51:34;;;;;;;2.20;1.10;;;;;;;7.65;100.00;99772.91;6255225;23;20232;-81
2023/01/12 05:54:02;;;;;;;2.53;1.00;;;;;;;7.78;100.00;99786.31;6205646;23;20204;-81
2023/01/12 05:56:29;;;;;;;2.70;1.00;;;;;;;7.76;100.00;99767.00;6258052;23;20205;-81
2023/01/12 07:35:50;;;;;;;2.50;0.90;;;;;;;6.19;100.00;99813.47;6219596;22;20212;-83
2023/01/12 07:38:17;;;;;;;2.17;1.20;;;;;;;6.24;100.00;99812.06;6209339;23;20308;-81
2023/01/12 07:40:44;;;;;;;1.63;0.97;;;;;;;6.19;100.00;99815.28;6237743;23;20213;-82
2023/01/12 07:43:13;;;;;;;1.97;1.00;;;;;;;5.92;100.00;99808.81;6212559;23;20208;-82
2023/01/12 07:45:40;;;;;;;3.17;1.20;;;;;;;6.03;100.00;99794.22;6187969;23;20212;-82
2023/01/12 07:48:07;;;;;;;2.63;1.10;;;;;;;6.19;100.00;99797.50;6186463;23;20261;-81
2023/01/12 07:50:35;;;;;;;2.47;1.37;;;;;;;6.31;100.00;99804.97;6237289;23;20267;-82
2023/01/12 07:53:02;;;;;;;2.60;1.23;;;;;;;6.27;100.00;99798.38;6236629;23;20213;-82
2023/01/12 07:55:30;;;;;;;2.67;1.20;;;;;;;6.32;100.00;99815.44;6211995;23;20185;-82
2023/01/12 07:58:02;;;;;;;4.33;1.57;;;;;;;6.29;100.00;99810.50;6260378;22;20733;-82
2023/01/12 08:00:30;;;;;;;3.40;2.17;;;;;;;6.33;100.00;99803.78;6262002;23;20201;-82
2023/01/12 08:03:04;;;;;;;5.43;3.20;;;;;;;6.35;100.00;99806.22;6236745;23;20208;-81
2023/01/12 08:05:38;;;;;;;4.00;1.57;;;;;;;6.51;100.00;99804.19;6236568;23;20208;-82
2023/01/12 08:08:06;;;;;;;2.80;1.40;;;;;;;6.64;100.00;99811.47;6247610;23;20259;-81
2023/01/12 08:10:32;;;;;;;2.73;1.10;;;;;;;6.74;100.00;99803.16;6227210;23;20261;-81
2023/01/12 08:12:59;;;;;;;1.40;0.90;;;;;;;6.87;100.00;99803.28;6227876;23;20240;-80
2023/01/12 08:15:26;;;;;;;1.97;0.90;;;;;;;6.90;100.00;99797.59;6253206;23;20255;-81
2023/01/12 08:18:02;;;;;;;1.73;0.93;;;;;;;6.97;100.00;99796.63;6254634;23;20204;-80
2023/01/12 08:20:33;;;;;;;1.47;0.70;;;;;;;7.03;100.00;99795.88;6225049;23;20207;-81
2023/01/12 08:23:04;;;;;;;2.40;0.90;;;;;;;7.14;100.00;99799.03;6225508;23;20217;-81
2023/01/12 08:25:37;;;;;;;2.37;1.20;;;;;;;7.42;100.00;99794.47;6229241;23;20205;-81
2023/01/12 08:28:06;;;;;;;2.03;1.40;;;;;;;7.33;100.00;99801.81;6224917;23;20217;-80
2023/01/12 08:30:33;;;;;;;4.13;2.10;;;;;;;7.37;100.00;99803.06;6250536;23;20187;-81
2023/01/12 08:33:00;;;;;;;5.53;1.70;;;;;;;7.44;100.00;99797.78;6227630;23;20212;-81
2023/01/12 08:35:29;;;;;;;4.37;2.30;;;;;;;7.48;100.00;99796.38;6254095;23;20276;-81
2023/01/12 08:37:56;;;;;;;29.30;13.20;;;;;;;7.59;100.00;99787.00;6203497;23;20204;-81
2023/01/12 08:40:23;;;;;;;28.17;13.07;;;;;;;7.71;100.00;99804.09;6203876;23;20209;-81
2023/01/12 08:42:50;;;;;;;10.30;4.77;;;;;;;7.79;100.00;99802.09;6254432;23;20280;-81
2023/01/12 08:45:16;;;;;;;7.23;4.93;;;;;;;7.86;100.00;99799.47;6227811;23;20231;-81
2023/01/12 08:47:44;;;;;;;6.70;3.17;;;;;;;8.00;100.00;99809.19;6254321;23;20200;-81
2023/01/12 08:50:10;;;;;;;6.50;1.80;;;;;;;8.18;100.00;99809.47;6226598;23;20527;-80
2023/01/12 08:52:37;;;;;;;2.93;1.80;;;;;;;8.04;100.00;99810.41;6254540;23;20256;-80
2023/01/12 08:55:04;;;;;;;7.40;2.30;;;;;;;8.12;100.00;99812.13;6253315;23;20288;-81
2023/01/12 08:57:31;;;;;;;4.10;1.90;;;;;;;8.18;100.00;99816.63;6253769;23;20223;-81
2023/01/12 08:59:57;;;;;;;5.17;2.40;;;;;;;8.16;100.00;99816.84;6253884;23;20199;-81
2023/01/12 09:02:25;;;;;;;4.37;2.50;;;;;;;8.16;100.00;99808.84;6213581;23;20201;-81
2023/01/12 09:04:52;;;;;;;2.70;1.70;;;;;;;8.34;100.00;99817.16;6254320;23;20669;-81
2023/01/12 09:07:19;;;;;;;4.63;1.50;;;;;;;8.42;100.00;99816.13;6255292;23;20256;-81
2023/01/12 09:09:51;;;;;;;1.97;1.40;;;;;;;8.39;100.00;99824.56;6254200;23;20207;-80
2023/01/12 09:12:17;;;;;;;4.23;2.83;;;;;;;8.46;100.00;99819.22;6224804;23;20200;-81
2023/01/12 09:14:44;;;;;;;6.33;4.37;;;;;;;8.53;100.00;99820.91;6254144;23;20240;-80
2023/01/12 09:17:11;;;;;;;6.47;5.57;;;;;;;8.53;100.00;99820.91;6254828;23;20592;-81
2023/01/12 09:19:37;;;;;;;8.83;6.47;;;;;;;8.67;100.00;99824.44;6226054;23;20231;-81
2023/01/12 09:22:04;;;;;;;6.23;3.77;;;;;;;8.77;100.00;99817.66;6199647;23;20212;-81
2023/01/12 09:24:31;;;;;;;5.43;2.80;;;;;;;8.86;100.00;99826.31;6255766;23;20181;-81
2023/01/12 09:27:00;;;;;;;4.50;2.23;;;;;;;8.97;100.00;99824.88;6257847;23;20281;-81
2023/01/12 09:29:27;;;;;;;4.43;3.10;;;;;;;9.04;100.00;99813.16;6259259;23;20204;-81
2023/01/12 09:31:53;;;;;;;4.17;3.13;;;;;;;9.14;100.00;99820.78;6229065;23;20231;-81
2023/01/12 09:34:21;;;;;;;5.63;4.10;;;;;;;9.20;100.00;99811.91;6256275;23;20224;-80
2023/01/12 09:36:51;;;;;;;3.83;2.30;;;;;;;9.35;100.00;99820.56;6212746;23;20211;-80
2023/01/12 09:39:17;;;;;;;3.93;2.40;;;;;;;9.44;100.00;99813.97;6204450;23;20208;-80
2023/01/12 09:47:46;;;;;;;4.77;2.80;;;;;;;9.62;100.00;99811.47;6246003;23;20239;-80
2023/01/12 09:50:21;;;;;;;3.00;2.10;;;;;;;9.74;100.00;99806.31;6218852;23;20234;-79
2023/01/12 09:53:10;;;;;;;3.17;1.90;;;;;;;9.69;100.00;99798.09;6219121;23;20204;-79
2023/01/12 09:55:43;;;;;;;3.33;1.50;;;;;;;9.64;100.00;99792.53;6245855;23;20282;-79
2023/01/12 09:58:31;;;;;;;2.00;1.23;;;;;;;9.85;100.00;99780.72;6245356;23;20270;-78
2023/01/12 10:00:58;;;;;;;3.40;1.20;;;;;;;9.91;100.00;99786.06;6220196;23;20211;-80
2023/01/12 10:03:34;;;;;;;3.43;1.30;;;;;;;9.92;100.00;99793.06;6220122;23;20208;-79
2023/01/12 10:06:01;;;;;;;2.43;1.03;;;;;;;9.93;100.00;99786.69;6221304;23;20205;-81
2023/01/12 10:08:28;;;;;;;3.10;1.33;;;;;;;9.98;100.00;99781.53;6207392;23;20205;-83
2023/01/12 10:11:26;;;;;;;3.70;1.17;;;;;;;10.10;100.00;99776.31;6212886;23;20174;-82
2023/01/12 10:14:15;;;;;;;7.63;1.70;;;;;;;10.33;100.00;99779.31;6209403;23;20205;-82
2023/01/12 10:16:46;;;;;;;16.10;11.47;;;;;;;10.44;100.00;99786.69;6234691;23;20205;-82
2023/01/12 10:19:24;;;;;;;4.57;2.07;;;;;;;10.50;100.00;99780.44;6236647;23;20186;-82
2023/01/12 10:21:54;;;;;;;2.93;1.03;;;;;;;10.75;100.00;99763.59;6182831;23;20211;-81
2023/01/12 10:24:23;;;;;;;4.17;1.73;;;;;;;10.67;100.00;99769.22;6209953;23;20212;-81
2023/01/12 10:26:59;;;;;;;6.83;3.03;;;;;;;10.72;100.00;99777.44;6206569;23;20214;-83
2023/01/12 10:29:27;;;;;;;4.50;3.70;;;;;;;10.84;100.00;99781.88;6197402;23;20212;-83
2023/01/12 10:31:54;;;;;;;6.00;3.13;;;;;;;10.89;100.00;99783.91;6193463;23;20214;-84
2023/01/12 10:34:21;;;;;;;3.93;1.87;;;;;;;11.16;100.00;99763.06;6191538;23;20283;-83
2023/01/12 10:36:49;;;;;;;1.90;1.03;;;;;;;11.15;100.00;99764.91;6199720;23;20658;-82
2023/01/12 10:39:30;;;;;;;3.90;0.90;;;;;;;11.26;100.00;99766.88;6208694;23;20224;-81
2023/01/12 10:45:09;;;;;;;2.00;0.60;;;;;;;11.52;100.00;99744.38;6205192;23;20239;-82
2023/01/12 10:47:35;;;;;;;2.27;0.60;;;;;;;11.55;96.89;99740.41;6182023;23;20217;-82
2023/01/12 10:50:41;;;;;;;2.10;0.60;;;;;;;11.64;96.48;99742.56;6181002;23;20666;-81
2023/01/12 10:53:14;;;;;;;2.47;0.80;;;;;;;11.64;98.70;99737.19;6079389;23;20772;-83
2023/01/12 10:55:42;;;;;;;2.10;0.70;;;;;;;11.88;93.93;99739.00;6080433;23;20267;-83
2023/01/12 10:58:29;;;;;;;2.90;0.80;;;;;;;12.06;94.88;99734.66;6141707;23;20774;-83
2023/01/12 11:00:56;;;;;;;2.53;1.20;;;;;;;12.20;95.22;99734.25;6222556;23;20216;-83
2023/01/12 11:03:32;;;;;;;5.17;1.80;;;;;;;12.36;94.57;99724.75;6214200;23;20207;-84
2023/01/12 11:06:15;;;;;;;2.40;0.87;;;;;;;12.58;91.21;99725.03;6187896;23;20304;-86
2023/01/12 11:08:42;;;;;;;2.13;0.60;;;;;;;12.65;88.64;99717.66;6214229;23;20213;-85
2023/01/12 11:11:35;;;;;;;2.43;0.73;;;;;;;12.85;86.73;99710.13;6214374;23;20209;-86
2023/01/12 11:14:03;;;;;;;2.83;0.80;;;;;;;12.99;84.26;99706.16;6182718;23;20207;-88
2023/01/12 11:16:33;;;;;;;3.50;0.70;;;;;;;13.18;83.03;99707.72;6216249;23;20248;-84
2023/01/12 11:19:14;;;;;;;3.40;0.80;;;;;;;13.18;80.55;99698.81;6190212;23;20245;-85
2023/01/12 11:21:45;;;;;;;2.00;0.87;;;;;;;13.10;80.52;99691.91;6216829;23;20551;-87
2023/01/12 11:24:40;;;;;;;2.77;0.80;;;;;;;12.98;78.10;99687.56;6189108;23;20586;-83
2023/01/12 11:27:23;;;;;;;1.57;0.60;;;;;;;13.17;76.78;99686.41;6190745;23;20210;-86
2023/01/12 11:29:57;;;;;;;4.53;1.00;;;;;;;13.20;76.11;99686.75;6188683;23;20205;-86
2023/01/12 11:32:31;;;;;;;1.73;0.67;;;;;;;13.20;74.45;99673.31;6189509;23;20624;-84
2023/01/12 11:35:00;;;;;;;2.13;0.80;;;;;;;12.96;75.09;99678.91;6215036;23;20240;-86
2023/01/12 11:37:32;;;;;;;2.97;0.80;;;;;;;13.05;75.20;99675.66;6189758;23;20208;-82
2023/01/12 11:40:05;;;;;;;2.73;0.60;;;;;;;12.97;74.58;99656.34;6214722;23;20216;-85
2023/01/12 11:45:26;;;;;;;2.90;0.70;;;;;;;13.14;71.91;99643.84;6194133;23;20276;-84
2023/01/12 11:47:59;;;;;;;3.13;0.77;;;;;;;13.23;71.80;99654.03;6164907;23;20256;-83
2023/01/12 11:50:29;;;;;;;2.87;0.70;;;;;;;13.40;71.98;99645.19;6164781;23;20197;-84
2023/01/12 11:52:57;;;;;;;1.57;0.70;;;;;;;13.46;71.20;99639.69;6189839;23;20233;-86
2023/01/12 11:55:39;;;;;;;2.00;0.63;;;;;;;13.54;70.83;99639.31;6216082;23;20234;-85
2023/01/12 11:58:24;;;;;;;1.50;0.60;;;;;;;13.64;68.27;99631.44;6189123;23;20233;-83
2023/01/12 12:00:57;;;;;;;1.90;0.53;;;;;;;13.57;68.57;99628.09;6190217;23;20233;-85
2023/01/12 12:03:51;;;;;;;1.10;0.70;;;;;;;13.51;68.22;99634.44;6216484;23;20213;-82
2023/01/12 12:06:42;;;;;;;2.73;0.90;;;;;;;13.59;69.69;99631.34;6189410;23;20217;-84
2023/01/12 12:09:47;;;;;;;1.30;0.80;;;;;;;13.58;70.06;99631.56;6216269;23;20214;-83
2023/01/12 12:12:30;;;;;;;1.67;0.50;;;;;;;13.75;68.07;99628.97;6189165;23;20226;-86
2023/01/12 12:15:02;;;;;;;2.53;0.77;;;;;;;13.76;65.90;99630.59;6214152;23;20218;-84
2023/01/12 12:18:19;;;;;;;2.30;0.80;;;;;;;13.73;66.76;99618.44;6215502;23;20209;-84
2023/01/12 12:20:59;;;;;;;2.80;0.73;;;;;;;13.71;66.67;99622.44;6094283;23;20213;-85
2023/01/12 12:23:47;;;;;;;1.27;0.70;;;;;;;13.62;65.48;99616.59;6202169;23;20232;-86
2023/01/12 12:26:24;;;;;;;1.53;0.60;;;;;;;13.45;66.37;99611.16;6214671;23;20211;-84
2023/01/12 12:29:14;;;;;;;1.90;0.60;;;;;;;13.43;67.01;99613.28;6189346;23;20598;-87
2023/01/12 12:31:56;;;;;;;1.70;0.40;;;;;;;13.47;65.67;99605.53;6189813;23;20187;-84
2023/01/12 12:34:52;;;;;;;2.23;0.63;;;;;;;13.53;64.40;99604.59;6188798;23;20214;-85
2023/01/12 12:37:28;;;;;;;2.60;0.70;;;;;;;13.63;64.87;99607.44;6189302;23;20657;-86
2023/01/12 12:39:56;;;;;;;1.63;0.60;;;;;;;13.63;63.93;99602.88;6216235;23;20215;-85
2023/01/12 12:46:04;;;;;;;1.10;0.50;;;;;;;13.77;62.18;99598.03;6193312;23;20254;-87
2023/01/12 12:48:36;;;;;;;1.60;0.50;;;;;;;13.86;61.05;99598.47;6189284;23;20211;-86
2023/01/12 12:51:08;;;;;;;2.03;0.73;;;;;;;13.82;62.03;99598.13;6189632;23;20214;-84
2023/01/12 12:53:44;;;;;;;1.93;0.60;;;;;;;13.94;61.94;99590.00;6188778;23;20211;-86
2023/01/12 12:56:13;;;;;;;2.07;0.60;;;;;;;13.94;62.08;99593.53;6188994;23;20214;-87
2023/01/12 12:58:41;;;;;;;2.60;0.53;;;;;;;14.02;61.56;99582.34;6188848;23;20587;-85
2023/01/12 13:01:20;;;;;;;2.70;0.70;;;;;;;14.10;61.20;99583.81;6215029;23;20719;-87
2023/01/12 13:03:51;;;;;;;1.57;0.40;;;;;;;14.15;61.14;99581.22;6215381;23;20218;-85
2023/01/12 13:06:37;;;;;;;3.03;0.60;;;;;;;14.23;59.47;99582.69;6163774;23;20222;-83
2023/01/12 13:09:10;;;;;;;1.77;0.60;;;;;;;14.28;58.76;99577.38;6187117;23;20208;-84
2023/01/12 13:11:53;;;;;;;2.20;0.50;;;;;;;14.32;58.21;99583.94;6189065;23;20212;-85
2023/01/12 13:14:31;;;;;;;2.30;0.50;;;;;;;14.40;57.62;99578.16;6214386;23;20222;-92
2023/01/12 13:17:02;;;;;;;2.47;0.60;;;;;;;14.41;57.94;99579.78;6215519;23;20192;-87
2023/01/12 13:19:34;;;;;;;1.70;0.60;;;;;;;14.47;58.04;99570.69;6215107;23;20212;-86
2023/01/12 13:22:26;;;;;;;4.33;2.90;;;;;;;14.51;58.28;99569.16;6188815;23;20211;-81
2023/01/12 13:24:55;;;;;;;2.77;1.10;;;;;;;14.54;57.94;99566.78;6188941;23;20681;-85
2023/01/12 13:27:59;;;;;;;1.23;0.60;;;;;;;14.73;56.25;99574.59;6189698;23;20200;-86
2023/01/12 13:30:25;;;;;;;2.10;0.63;;;;;;;14.59;55.54;99565.22;6214614;23;20676;-84
2023/01/12 13:32:52;;;;;;;2.00;0.60;;;;;;;14.48;57.03;99575.03;6215064;23;20204;-83
2023/01/12 13:35:22;;;;;;;1.80;0.60;;;;;;;14.35;57.04;99559.16;6214672;23;20210;-84
2023/01/12 13:37:56;;;;;;;1.90;0.80;;;;;;;14.32;56.83;99556.97;6215570;23;20196;-83
2023/01/12 13:40:28;;;;;;;1.27;0.50;;;;;;;14.31;56.08;99556.16;6214625;23;20205;-86
2023/01/12 13:43:16;;;;;;;2.43;0.70;;;;;;;14.19;55.47;99554.59;6188797;23;20543;-85
2023/01/12 13:46:02;;;;;;;1.43;0.50;;;;;;;14.10;55.61;99546.09;6192551;23;20296;-86
2023/01/12 13:48:33;;;;;;;1.73;0.60;;;;;;;14.12;55.49;99546.69;6188195;23;20209;-84
2023/01/12 13:51:22;;;;;;;1.10;0.60;;;;;;;14.00;54.57;99544.03;6188947;23;20284;-84
2023/01/12 13:53:59;;;;;;;0.70;0.40;;;;;;;14.04;54.90;99539.81;6214430;23;20206;-84
2023/01/12 13:56:26;;;;;;;1.63;0.40;;;;;;;13.97;54.51;99539.16;6214837;23;20585;-86
2023/01/12 13:58:58;;;;;;;1.00;0.40;;;;;;;13.95;54.56;99543.16;6214727;23;20212;-88
2023/01/12 14:01:28;;;;;;;1.97;0.57;;;;;;;13.87;54.27;99547.06;6189015;23;20689;-85
2023/01/12 14:03:58;;;;;;;1.53;0.50;;;;;;;13.85;54.06;99541.13;6188101;23;20219;-85
2023/01/12 14:06:54;;;;;;;1.20;0.50;;;;;;;13.73;54.12;99536.81;6214130;23;20204;-86
2023/01/12 14:09:33;;;;;;;2.07;0.60;;;;;;;13.67;54.19;99539.44;6155645;23;20211;-84
2023/01/12 14:12:30;;;;;;;1.63;0.57;;;;;;;13.57;54.35;99539.28;6174126;23;20213;-86
2023/01/12 14:18:01;;;;;;;1.17;0.50;;;;;;;13.33;54.93;99536.91;6214586;23;20204;-86
2023/01/12 14:20:30;;;;;;;1.73;0.80;;;;;;;13.19;54.64;99529.13;6188286;23;20234;-85
2023/01/12 14:23:13;;;;;;;1.10;0.60;;;;;;;13.17;54.64;99531.22;6164039;23;20287;-84
2023/01/12 14:25:41;;;;;;;1.27;0.80;;;;;;;13.04;54.68;99520.69;6186829;23;20203;-85
2023/01/12 14:28:19;;;;;;;1.20;0.87;;;;;;;12.98;54.74;99527.00;6187489;23;20652;-86
2023/01/12 14:30:51;;;;;;;1.50;1.20;;;;;;;12.91;55.28;99520.97;6188603;23;20241;-86
2023/01/12 14:33:19;;;;;;;1.80;1.40;;;;;;;12.80;55.60;99524.47;6213103;23;20278;-86
2023/01/12 14:35:47;;;;;;;1.87;1.10;;;;;;;12.71;55.62;99521.34;6188684;23;20199;-87
2023/01/12 14:38:16;;;;;;;1.40;0.90;;;;;;;12.62;55.13;99519.25;6188270;23;20677;-88
2023/01/12 14:40:49;;;;;;;1.73;1.40;;;;;;;12.51;55.06;99517.38;6214966;23;20660;-87
2023/01/12 14:49:15;;;;;;;1.47;1.00;;;;;;;12.17;55.11;99508.28;6169561;23;20210;-87
2023/01/12 14:51:52;;;;;;;1.63;1.13;;;;;;;12.04;56.51;99509.31;6179091;23;20253;-88
2023/01/12 14:54:24;;;;;;;1.97;1.47;;;;;;;11.96;56.79;99508.84;6212462;23;20214;-87
2023/01/12 14:57:06;;;;;;;2.73;1.20;;;;;;;11.88;58.18;99512.69;6163577;23;20234;-86
2023/01/12 14:59:35;;;;;;;2.20;1.20;;;;;;;11.83;58.98;99515.25;6163105;23;20214;-86
2023/01/12 15:02:14;;;;;;;5.87;4.70;;;;;;;11.77;58.60;99516.97;6187341;23;20207;-87
2023/01/12 15:04:55;;;;;;;3.20;2.73;;;;;;;11.68;58.34;99510.25;6214029;23;20550;-87
2023/01/12 15:07:23;;;;;;;12.23;8.90;;;;;;;11.57;57.55;99505.66;6214139;23;20209;-87
2023/01/12 15:09:55;;;;;;;11.20;7.63;;;;;;;11.50;58.09;99502.28;6213094;23;20206;-87
2023/01/12 15:12:28;;;;;;;3.53;2.33;;;;;;;11.43;58.45;99507.72;6187675;23;20207;-87
2023/01/12 15:15:13;;;;;;;2.13;1.13;;;;;;;11.37;58.55;99507.84;6214175;23;20643;-86
2023/01/12 15:25:34;;;;;;;4.17;2.20;;;;;;;11.17;60.92;99515.31;6187426;23;20205;-84
2023/01/12 15:25:59;;;;;;;6.77;4.70;;;;;;;11.02;66.07;99529.13;6214608;23;20205;-83
2023/01/12 15:28:27;;;;;;;9.50;5.13;;;;;;;10.87;67.74;99523.34;6187519;23;20206;-84
2023/01/12 15:30:53;;;;;;;5.83;3.40;;;;;;;10.85;69.37;99528.09;6214420;23;20210;-86
2023/01/12 15:33:21;;;;;;;5.03;2.80;;;;;;;10.74;72.94;99526.97;6214646;23;20198;-88
2023/01/12 15:35:48;;;;;;;3.60;2.20;;;;;;;10.72;78.41;99529.06;6163186;23;20264;-87
2023/01/12 15:38:15;;;;;;;6.33;3.40;;;;;;;10.66;82.76;99534.47;6214644;23;20209;-87
2023/01/12 15:40:42;;;;;;;7.20;4.40;;;;;;;10.58;86.43;99535.59;6163859;23;20255;-87
2023/01/12 15:43:13;;;;;;;12.00;8.77;;;;;;;10.58;90.08;99538.28;6188264;23;20257;-88
2023/01/12 15:45:46;;;;;;;35.43;22.33;;;;;;;10.41;92.66;99532.66;6188364;23;20212;-87
2023/01/12 15:48:13;;;;;;;15.50;9.93;;;;;;;10.37;94.76;99531.47;6187965;23;20209;-87
2023/01/12 15:50:42;;;;;;;8.17;4.97;;;;;;;10.31;96.45;99523.50;6163973;23;20209;-87
2023/01/12 15:53:20;;;;;;;5.33;3.27;;;;;;;10.24;97.75;99533.44;6188639;23;20202;-86
2023/01/12 15:55:50;;;;;;;6.47;3.23;;;;;;;10.21;99.36;99526.69;6189202;23;20213;-85
2023/01/12 15:58:18;;;;;;;5.77;3.37;;;;;;;10.23;100.00;99535.31;6191719;23;20233;-85
2023/01/12 16:00:45;;;;;;;5.07;3.57;;;;;;;10.09;100.00;99520.34;6165365;23;20666;-85
2023/01/12 16:03:12;;;;;;;4.20;3.17;;;;;;;10.04;100.00;99530.91;6190046;23;20205;-85
2023/01/12 16:06:02;;;;;;;6.10;3.20;;;;;;;10.05;100.00;99521.84;6191159;23;20209;-84
2023/01/12 16:08:54;;;;;;;4.70;2.90;;;;;;;9.76;100.00;99535.84;6176205;23;20188;-83
2023/01/12 17:07:50;;;;;;;8.97;7.70;;;;;;;7.64;100.00;99529.41;6256835;22;20282;-81
2023/01/12 17:10:26;;;;;;;11.03;7.30;;;;;;;7.59;100.00;99521.22;6278273;22;20230;-83
2023/01/12 17:22:14;;;;;;;12.43;9.40;;;;;;;7.43;100.00;99540.22;6256370;22;20223;-83
2023/01/12 17:25:03;;;;;;;13.47;11.03;;;;;;;7.41;100.00;99521.78;6128579;23;20528;-79
2023/01/12 17:36:48;;;;;;;16.50;12.87;;;;;;;7.22;100.00;99500.41;6165566;23;20207;-82
2023/01/12 17:39:36;;;;;;;18.50;13.20;;;;;;;7.11;100.00;99511.66;6032955;23;20194;-83
2023/01/12 17:44:53;;;;;;;25.47;15.60;;;;;;;7.00;100.00;99510.38;6149496;23;20202;-82
2023/01/12 17:47:27;;;;;;;25.53;17.17;;;;;;;6.96;100.00;99517.94;6176074;23;20532;-83
2023/01/12 17:52:50;;;;;;;18.93;12.97;;;;;;;6.95;100.00;99516.28;6170234;23;20238;-81
2023/01/12 17:55:18;;;;;;;30.90;24.20;;;;;;;6.85;100.00;99513.22;6105397;23;20206;-83
2023/01/12 17:57:57;;;;;;;21.27;15.83;;;;;;;6.80;100.00;99520.13;6228976;23;20189;-82
2023/01/12 18:00:24;;;;;;;23.67;17.23;;;;;;;6.62;100.00;99510.81;6208531;23;20231;-80
2023/01/12 18:02:52;;;;;;;21.20;17.63;;;;;;;6.60;100.00;99517.38;6227782;23;20212;-81
2023/01/12 18:05:20;;;;;;;21.70;18.17;;;;;;;6.46;100.00;99503.16;6198627;23;20212;-81
2023/01/12 18:07:46;;;;;;;18.70;15.20;;;;;;;6.48;100.00;99511.78;6172743;23;20241;-82
2023/01/12 18:10:14;;;;;;;17.17;15.30;;;;;;;6.45;100.00;99517.47;6191185;23;20182;-81
2023/01/12 18:12:54;;;;;;;16.60;14.13;;;;;;;6.36;100.00;99517.84;6201907;23;20196;-81
2023/01/12 18:15:23;;;;;;;12.30;10.50;;;;;;;6.18;100.00;99521.81;6193766;23;20551;-82
2023/01/12 18:17:57;;;;;;;7.03;6.10;;;;;;;6.30;100.00;99527.41;6205620;23;20180;-83
2023/01/12 18:26:31;;;;;;;5.73;4.80;;;;;;;5.92;100.00;99526.94;6221280;22;20209;-82
2023/01/12 18:29:00;;;;;;;6.13;4.90;;;;;;;5.77;100.00;99518.19;6256141;23;20535;-82
2023/01/12 18:31:30;;;;;;;7.57;5.40;;;;;;;5.71;100.00;99516.28;6229467;23;20291;-82
2023/01/12 18:36:30;;;;;;;7.97;5.10;;;;;;;5.48;100.00;99508.50;6102598;23;20251;-82
2023/01/12 18:38:56;;;;;;;6.17;5.40;;;;;;;5.46;100.00;99507.06;6102468;23;20248;-82
2023/01/12 18:44:09;;;;;;;9.17;5.37;;;;;;;5.26;100.00;99510.34;6101095;23;20216;-82
2023/01/12 18:49:29;;;;;;;7.73;5.10;;;;;;;5.18;100.00;99499.03;6057485;23;20262;-82
2023/01/12 18:54:44;;;;;;;6.03;4.60;;;;;;;5.12;100.00;99508.56;6098243;23;20211;-84
2023/01/12 18:57:12;;;;;;;4.97;4.40;;;;;;;5.06;100.00;99514.59;6103802;23;20219;-82
2023/01/12 18:59:39;;;;;;;5.47;4.50;;;;;;;5.03;100.00;99517.66;6105523;23;20222;-82
2023/01/12 19:02:10;;;;;;;6.83;5.03;;;;;;;4.98;100.00;99516.56;6104812;23;20235;-82
2023/01/12 19:05:13;;;;;;;8.93;6.63;;;;;;;5.10;100.00;99517.69;6080770;23;20215;-82
2023/01/12 19:10:10;;;;;;;7.80;6.00;;;;;;;4.98;100.00;99509.41;6074575;23;20271;-82
2023/01/12 19:12:36;;;;;;;8.50;6.67;;;;;;;4.94;100.00;99516.13;6226704;23;20211;-81
2023/01/12 19:17:49;;;;;;;8.37;5.87;;;;;;;4.86;100.00;99518.84;6227366;23;20216;-82
2023/01/12 19:20:16;;;;;;;8.23;6.10;;;;;;;4.88;100.00;99520.31;6226279;23;20216;-82
2023/01/12 19:28:34;;;;;;;9.57;6.00;;;;;;;4.91;100.00;99526.25;6227287;23;20248;-82
2023/01/12 19:31:08;;;;;;;9.23;5.73;;;;;;;4.87;100.00;99528.47;6175448;23;20224;-82
2023/01/12 19:33:36;;;;;;;7.60;6.17;;;;;;;4.84;100.00;99516.41;6073872;23;20666;-82
2023/01/12 19:36:08;;;;;;;6.33;5.47;;;;;;;4.76;100.00;99511.16;6074892;23;20212;-81
2023/01/12 19:38:35;;;;;;;6.77;5.67;;;;;;;4.75;100.00;99512.19;6075569;23;20216;-82
2023/01/12 19:41:11;;;;;;;7.73;5.77;;;;;;;4.72;100.00;99515.22;6075813;23;20292;-82
2023/01/12 19:43:43;;;;;;;7.37;6.17;;;;;;;4.72;100.00;99520.50;6075285;23;20209;-82
2023/01/12 19:46:11;;;;;;;7.43;6.03;;;;;;;4.78;100.00;99511.81;6073913;23;20219;-81
2023/01/12 19:48:38;;;;;;;12.90;11.47;;;;;;;4.77;100.00;99507.50;6075641;23;20209;-81
2023/01/12 19:51:07;;;;;;;26.53;24.07;;;;;;;4.76;100.00;99505.88;6059965;23;20685;-82
2023/01/12 19:53:37;;;;;;;9.63;8.63;;;;;;;4.75;100.00;99506.06;6063730;23;20666;-82
2023/01/12 19:56:10;;;;;;;10.13;8.30;;;;;;;4.74;100.00;99507.06;6072566;23;20211;-81
2023/01/12 19:58:37;;;;;;;9.67;8.67;;;;;;;4.79;100.00;99513.47;6072446;23;20276;-81
2023/01/12 20:01:04;;;;;;;11.77;9.20;;;;;;;4.73;100.00;99508.06;6070932;23;20213;-81
2023/01/12 20:03:31;;;;;;;9.47;8.40;;;;;;;4.66;100.00;99507.19;6074120;23;20213;-81
2023/01/12 20:05:57;;;;;;;12.73;9.00;;;;;;;4.73;100.00;99510.72;6071233;23;20223;-82
2023/01/12 20:08:24;;;;;;;10.50;9.40;;;;;;;4.72;100.00;99507.25;6071205;23;20247;-81
2023/01/12 20:10:56;;;;;;;10.83;9.30;;;;;;;4.70;100.00;99517.25;6073181;23;20216;-82
2023/01/12 20:13:24;;;;;;;11.90;9.77;;;;;;;4.78;100.00;99508.34;6070611;23;20224;-82
2023/01/12 20:15:51;;;;;;;11.50;9.43;;;;;;;4.80;100.00;99509.81;6072312;23;20666;-81
2023/01/12 20:18:19;;;;;;;9.83;8.83;;;;;;;4.79;100.00;99507.34;6071857;23;20212;-81
2023/01/12 20:20:45;;;;;;;10.10;8.50;;;;;;;4.78;100.00;99508.34;6070968;23;20244;-82
2023/01/12 20:23:16;;;;;;;9.33;8.30;;;;;;;4.78;100.00;99490.59;6071014;23;20232;-82
2023/01/12 20:25:43;;;;;;;10.03;8.10;;;;;;;4.83;100.00;99503.31;6079435;23;20607;-81
2023/01/12 20:28:12;;;;;;;9.47;8.13;;;;;;;4.83;100.00;99503.31;6074894;23;20239;-82
2023/01/12 20:30:40;;;;;;;9.63;8.00;;;;;;;4.84;100.00;99507.59;6099154;23;20235;-81
2023/01/12 20:33:08;;;;;;;10.40;8.17;;;;;;;4.86;100.00;99482.50;6100941;23;20214;-82
2023/01/12 20:35:37;;;;;;;11.07;8.40;;;;;;;4.95;100.00;99496.50;6075468;23;20208;-82
2023/01/12 20:38:05;;;;;;;11.40;8.17;;;;;;;5.03;100.00;99490.25;6074625;23;20223;-81
2023/01/12 20:40:32;;;;;;;10.77;7.67;;;;;;;5.03;100.00;99498.22;6075382;23;20196;-81
2023/01/12 20:42:59;;;;;;;14.03;9.10;;;;;;;5.04;100.00;99486.59;6099907;23;20206;-82
2023/01/12 20:45:26;;;;;;;13.40;11.00;;;;;;;5.06;100.00;99495.19;6100639;23;20232;-82
2023/01/12 20:47:54;;;;;;;10.20;9.10;;;;;;;4.99;100.00;99483.69;6097227;23;20608;-81
2023/01/12 20:50:22;;;;;;;13.13;9.87;;;;;;;5.05;100.00;99489.06;6099124;23;20251;-81
2023/01/12 20:52:49;;;;;;;11.43;9.27;;;;;;;5.12;100.00;99483.84;6098337;23;20707;-81
2023/01/12 20:55:16;;;;;;;11.97;9.00;;;;;;;5.13;100.00;99477.50;6074361;23;20254;-81
2023/01/12 20:57:43;;;;;;;11.73;9.27;;;;;;;5.09;100.00;99479.69;6074114;23;20212;-82
2023/01/12 21:00:10;;;;;;;11.70;9.20;;;;;;;5.12;100.00;99476.69;6097888;23;20271;-81
2023/01/12 21:02:37;;;;;;;14.63;11.50;;;;;;;5.27;100.00;99489.91;6099389;23;20207;-81
2023/01/12 21:05:04;;;;;;;13.30;11.27;;;;;;;5.28;100.00;99480.91;6099635;23;20217;-82
2023/01/12 21:07:30;;;;;;;16.23;11.00;;;;;;;5.17;100.00;99474.28;6100050;23;20211;-81
2023/01/12 21:09:57;;;;;;;18.33;14.23;;;;;;;5.18;100.00;99472.47;6102476;23;20204;-82
2023/01/12 21:12:24;;;;;;;22.67;16.27;;;;;;;5.15;100.00;99481.63;6101215;23;20269;-81
2023/01/12 21:14:53;;;;;;;32.13;24.73;;;;;;;5.19;100.00;99477.56;6101881;23;20219;-81
2023/01/12 21:17:20;;;;;;;31.80;26.30;;;;;;;5.18;100.00;99486.53;6102827;23;20223;-82
2023/01/12 21:19:47;;;;;;;34.87;28.53;;;;;;;5.08;100.00;99478.06;6076422;23;20212;-82
2023/01/12 21:22:13;;;;;;;30.87;27.67;;;;;;;5.09;100.00;99482.34;6100664;23;20212;-81
2023/01/12 21:24:40;;;;;;;34.73;31.00;;;;;;;5.07;100.00;99476.44;6076856;23;20243;-82
2023/01/12 21:27:06;;;;;;;40.37;33.33;;;;;;;5.04;100.00;99478.63;6075874;23;20226;-82
2023/01/12 21:29:33;;;;;;;31.00;25.57;;;;;;;5.01;100.00;99479.00;6077095;23;20734;-82
2023/01/12 21:32:07;;;;;;;28.20;23.30;;;;;;;5.01;100.00;99481.66;6101036;23;20207;-81
2023/01/12 21:34:34;;;;;;;16.73;14.80;;;;;;;4.97;100.00;99475.06;6100475;23;20216;-82
2023/01/12 21:37:01;;;;;;;16.97;14.67;;;;;;;5.01;100.00;99477.16;6052225;23;20212;-81
2023/01/12 21:39:27;;;;;;;17.63;14.10;;;;;;;5.00;100.00;99470.19;6101892;23;20215;-82